sensor_id;sensor_type;location;lat;lon;timestamp;P1;durP1;ratioP1;P2;durP2;ratioP2
6836;SDS011;3456;42.136;24.736;2023-09-07T20:55:58;14.13;;;8.97;;
6836;SDS011;3456;42.136;24.736;2023-09-07T20:58:27;11.93;;;8.40;;
6836;SDS011;3456;42.136;24.736;2023-09-07T21:00:55;13.43;;;8.63;;
6836;SDS011;3456;42.136;24.736;2023-09-07T21:03:27;13.47;;;8.30;;
6836;SDS011;3456;42.136;24.736;2023-09-07T21:05:56;13.23;;;7.97;;
6836;SDS011;3456;42.136;24.736;2023-09-07T21:08:25;13.57;;;7.53;;
6836;SDS011;3456;42.136;24.736;2023-09-07T21:10:54;14.60;;;7.50;;
6836;SDS011;3456;42.136;24.736;2023-09-07T21:13:25;13.17;;;7.17;;
6836;SDS011;3456;42.136;24.736;2023-09-07T21:15:54;10.20;;;7.17;;
6836;SDS011;3456;42.136;24.736;2023-09-07T21:18:20;11.87;;;7.37;;
6836;SDS011;3456;42.136;24.736;2023-09-07T21:20:48;13.30;;;7.47;;
6836;SDS011;3456;42.136;24.736;2023-09-07T21:23:17;12.77;;;7.57;;
6836;SDS011;3456;42.136;24.736;2023-09-07T21:25:46;12.67;;;7.23;;
6836;SDS011;3456;42.136;24.736;2023-09-07T21:28:15;11.63;;;7.30;;
6836;SDS011;3456;42.136;24.736;2023-09-07T21:30:46;12.70;;;6.93;;
6836;SDS011;3456;42.136;24.736;2023-09-07T21:33:15;16.27;;;6.60;;
6836;SDS011;3456;42.136;24.736;2023-09-07T21:35:44;10.30;;;6.50;;
6836;SDS011;3456;42.136;24.736;2023-09-07T21:38:13;16.20;;;6.77;;
6836;SDS011;3456;42.136;24.736;2023-09-07T21:40:42;10.87;;;5.93;;
6836;SDS011;3456;42.136;24.736;2023-09-07T21:43:11;11.37;;;6.50;;
6836;SDS011;3456;42.136;24.736;2023-09-07T21:45:39;12.53;;;6.57;;
6836;SDS011;3456;42.136;24.736;2023-09-07T21:48:11;11.57;;;6.90;;
6836;SDS011;3456;42.136;24.736;2023-09-07T21:50:40;10.53;;;6.17;;
6836;SDS011;3456;42.136;24.736;2023-09-07T21:53:09;10.37;;;6.00;;
6836;SDS011;3456;42.136;24.736;2023-09-07T21:55:38;13.00;;;6.20;;
6836;SDS011;3456;42.136;24.736;2023-09-07T21:58:07;11.37;;;6.30;;
6836;SDS011;3456;42.136;24.736;2023-09-07T22:00:36;14.73;;;6.73;;
6836;SDS011;3456;42.136;24.736;2023-09-07T22:03:05;9.63;;;5.93;;
6836;SDS011;3456;42.136;24.736;2023-09-07T22:05:36;10.93;;;6.50;;
6836;SDS011;3456;42.136;24.736;2023-09-07T22:08:06;12.40;;;6.13;;
6836;SDS011;3456;42.136;24.736;2023-09-07T22:10:35;10.37;;;6.23;;
6836;SDS011;3456;42.136;24.736;2023-09-07T22:13:05;15.23;;;6.57;;
6836;SDS011;3456;42.136;24.736;2023-09-07T22:15:34;13.07;;;6.40;;
6836;SDS011;3456;42.136;24.736;2023-09-07T22:18:03;12.37;;;6.40;;
6836;SDS011;3456;42.136;24.736;2023-09-07T22:20:32;14.30;;;6.57;;
6836;SDS011;3456;42.136;24.736;2023-09-07T22:23:03;14.43;;;6.70;;
6836;SDS011;3456;42.136;24.736;2023-09-07T22:25:32;12.10;;;6.00;;
6836;SDS011;3456;42.136;24.736;2023-09-07T22:28:01;14.50;;;6.03;;
6836;SDS011;3456;42.136;24.736;2023-09-07T22:30:31;11.37;;;5.70;;
6836;SDS011;3456;42.136;24.736;2023-09-07T22:32:59;14.50;;;6.20;;
6836;SDS011;3456;42.136;24.736;2023-09-07T22:35:28;11.70;;;6.33;;
6836;SDS011;3456;42.136;24.736;2023-09-07T22:37:57;12.37;;;6.50;;
6836;SDS011;3456;42.136;24.736;2023-09-07T22:40:31;11.70;;;6.50;;
6836;SDS011;3456;42.136;24.736;2023-09-07T22:43:00;13.50;;;6.67;;
6836;SDS011;3456;42.136;24.736;2023-09-07T22:45:31;13.50;;;6.00;;
6836;SDS011;3456;42.136;24.736;2023-09-07T22:48:01;13.83;;;6.07;;
6836;SDS011;3456;42.136;24.736;2023-09-07T22:50:31;11.37;;;5.33;;
6836;SDS011;3456;42.136;24.736;2023-09-07T22:53:00;6.87;;;5.40;;
6836;SDS011;3456;42.136;24.736;2023-09-07T22:55:40;10.90;;;5.60;;
6836;SDS011;3456;42.136;24.736;2023-09-07T22:58:11;8.93;;;5.53;;
6836;SDS011;3456;42.136;24.736;2023-09-07T23:00:42;8.40;;;5.10;;
6836;SDS011;3456;42.136;24.736;2023-09-07T23:03:11;8.67;;;5.20;;
6836;SDS011;3456;42.136;24.736;2023-09-07T23:05:41;8.63;;;4.73;;
6836;SDS011;3456;42.136;24.736;2023-09-07T23:08:11;8.67;;;5.03;;
6836;SDS011;3456;42.136;24.736;2023-09-07T23:10:42;6.23;;;4.63;;
6836;SDS011;3456;42.136;24.736;2023-09-07T23:13:11;11.43;;;5.23;;
6836;SDS011;3456;42.136;24.736;2023-09-07T23:15:42;6.00;;;4.40;;
6836;SDS011;3456;42.136;24.736;2023-09-07T23:18:12;7.20;;;4.40;;
6836;SDS011;3456;42.136;24.736;2023-09-07T23:20:41;5.33;;;4.40;;
6836;SDS011;3456;42.136;24.736;2023-09-07T23:23:09;7.50;;;4.33;;
6836;SDS011;3456;42.136;24.736;2023-09-07T23:25:38;7.20;;;4.20;;
6836;SDS011;3456;42.136;24.736;2023-09-07T23:28:10;7.10;;;4.60;;
6836;SDS011;3456;42.136;24.736;2023-09-07T23:30:39;7.47;;;4.33;;
6836;SDS011;3456;42.136;24.736;2023-09-07T23:33:07;20.63;;;4.33;;
6836;SDS011;3456;42.136;24.736;2023-09-07T23:35:36;9.17;;;4.50;;
6836;SDS011;3456;42.136;24.736;2023-09-07T23:38:05;7.23;;;4.50;;
6836;SDS011;3456;42.136;24.736;2023-09-07T23:40:34;8.90;;;4.30;;
6836;SDS011;3456;42.136;24.736;2023-09-07T23:43:03;5.57;;;4.17;;
6836;SDS011;3456;42.136;24.736;2023-09-07T23:45:35;5.03;;;3.93;;
6836;SDS011;3456;42.136;24.736;2023-09-07T23:48:05;6.27;;;4.33;;
6836;SDS011;3456;42.136;24.736;2023-09-07T23:50:34;7.50;;;4.23;;
6836;SDS011;3456;42.136;24.736;2023-09-07T23:53:02;7.53;;;3.97;;
6836;SDS011;3456;42.136;24.736;2023-09-07T23:55:31;6.83;;;4.07;;
6836;SDS011;3456;42.136;24.736;2023-09-07T23:58:00;6.63;;;4.43;;
